Terminal Aerodrome Forecast
Issued by NWS Spokane, WA

Home | Current Version | Previous Version | Text Only | Print | Product List | Glossary On
Versions: 1 2 3 4 5 6 7 8 9 10 11 12
000
FTUS46 KOTX 251726
TAFLWS
TAF
KLWS 251726Z 2518/2618 34005KT P6SM SCT060 BKN120
     FM260400 19005KT P6SM FEW110 BKN200
     FM261500 05003KT P6SM FEW080=

USA.gov is the U.S. government's official web portal to all federal, state and local government web resources and services.